createdAt,value
2022-09-11T00:03:49.927Z,19.80
2022-09-11T00:09:00.848Z,19.80
2022-09-11T00:14:03.373Z,19.90
2022-09-11T00:19:28.515Z,19.80
2022-09-11T00:24:30.648Z,19.90
2022-09-11T00:34:35.151Z,19.80
2022-09-11T00:39:37.713Z,19.80
2022-09-11T00:44:42.934Z,19.90
2022-09-11T00:49:48.479Z,19.80
2022-09-11T00:55:03.964Z,19.80
2022-09-11T01:00:08.113Z,19.80
2022-09-11T01:05:12.127Z,19.80
2022-09-11T01:15:34.863Z,19.90
2022-09-11T01:20:46.969Z,19.80
2022-09-11T01:26:22.296Z,19.80
2022-09-11T01:31:30.369Z,19.80
2022-09-11T01:36:38.554Z,19.80
2022-09-11T01:41:51.123Z,19.30
2022-09-11T01:46:54.349Z,19.90
2022-09-11T01:52:02.851Z,20.00
2022-09-11T01:57:17.483Z,20.00
2022-09-11T02:02:27.186Z,20.00
2022-09-11T02:07:35.077Z,20.00
2022-09-11T02:12:50.403Z,20.00
2022-09-11T02:18:01.779Z,20.00
2022-09-11T02:23:06.927Z,20.00
2022-09-11T02:28:09.325Z,20.00
2022-09-11T02:33:47.111Z,20.00
2022-09-11T02:38:55.337Z,19.90
2022-09-11T02:44:07.304Z,19.80
2022-09-11T02:49:43.538Z,19.90
2022-09-11T02:54:53.045Z,19.70
2022-09-11T03:00:01.854Z,19.70
2022-09-11T03:05:05.926Z,19.60
2022-09-11T03:10:11.445Z,19.60
2022-09-11T03:15:13.798Z,19.70
2022-09-11T03:20:17.725Z,19.60
2022-09-11T03:25:23.475Z,19.60
2022-09-11T03:30:27.838Z,19.60
2022-09-11T03:35:30.794Z,19.50
2022-09-11T03:40:32.942Z,19.60
2022-09-11T03:45:35.244Z,19.60
2022-09-11T03:50:37.472Z,19.70
2022-09-11T03:55:40.723Z,19.60
2022-09-11T04:00:47.447Z,19.50
2022-09-11T04:06:01.423Z,19.60
2022-09-11T04:11:11.600Z,19.60
2022-09-11T04:16:17.820Z,19.60
2022-09-11T04:21:20.948Z,19.70
2022-09-11T04:26:25.903Z,19.70
2022-09-11T04:31:28.612Z,19.60
2022-09-11T04:36:31.113Z,19.70
2022-09-11T04:41:33.339Z,19.70
2022-09-11T04:46:35.750Z,19.70
2022-09-11T04:51:40.640Z,19.70
2022-09-11T04:56:43.684Z,19.70
2022-09-11T05:01:46.445Z,19.70
2022-09-11T05:06:49.814Z,19.60
2022-09-11T05:11:52.220Z,19.60
2022-09-11T05:16:55.954Z,19.50
2022-09-11T05:27:01.446Z,19.40
2022-09-11T05:32:03.914Z,19.30
2022-09-11T05:42:09.580Z,19.20
2022-09-11T05:47:14.179Z,19.20
2022-09-11T05:52:17.187Z,19.20
2022-09-11T05:57:19.811Z,19.30
2022-09-11T06:02:22.334Z,19.30
2022-09-11T06:07:26.722Z,19.40
2022-09-11T06:12:29.516Z,19.50
2022-09-11T06:17:32.977Z,19.70
2022-09-11T06:27:39.747Z,20.30
2022-09-11T06:32:42.169Z,20.30
2022-09-11T06:37:44.569Z,20.50
2022-09-11T06:42:47.330Z,20.90
2022-09-11T06:47:49.710Z,21.00
2022-09-11T06:52:53.188Z,21.10
2022-09-11T06:57:55.893Z,21.50
2022-09-11T07:02:59.574Z,21.60
2022-09-11T07:08:02.087Z,21.60
2022-09-11T07:13:05.190Z,21.90
2022-09-11T07:18:08.092Z,22.10
2022-09-11T07:23:10.877Z,22.30
2022-09-11T07:28:13.239Z,22.50
2022-09-11T07:33:15.907Z,22.70
2022-09-11T07:38:18.822Z,22.90
2022-09-11T07:43:21.418Z,22.90
2022-09-11T07:48:23.635Z,23.00
2022-09-11T07:53:25.844Z,23.20
2022-09-11T07:58:32.264Z,23.40
2022-09-11T08:03:35.865Z,23.50
2022-09-11T08:08:39.114Z,23.50
2022-09-11T08:13:42.276Z,23.50
2022-09-11T08:18:45.120Z,23.50
2022-09-11T08:23:49.072Z,23.50
2022-09-11T08:28:53.293Z,23.40
2022-09-11T08:33:56.470Z,23.30
2022-09-11T08:39:02.949Z,23.30
2022-09-11T08:44:10.153Z,23.20
2022-09-11T08:49:28.239Z,23.30
2022-09-11T08:54:34.447Z,23.30
2022-09-11T08:59:56.617Z,23.40
2022-09-11T09:05:28.947Z,23.50
2022-09-11T09:10:39.748Z,23.80
2022-09-11T09:16:12.512Z,23.90
2022-09-11T09:21:31.758Z,23.90
2022-09-11T09:26:40.759Z,24.20
2022-09-11T09:31:46.513Z,24.20
2022-09-11T09:37:16.273Z,24.40
2022-09-11T09:42:36.196Z,24.50
2022-09-11T09:47:44.423Z,24.70
2022-09-11T09:52:49.149Z,24.80
2022-09-11T09:57:51.223Z,24.80
2022-09-11T10:02:55.163Z,24.80
2022-09-11T10:08:23.819Z,24.80
2022-09-11T10:13:36.539Z,25.20
2022-09-11T10:18:42.674Z,25.30
2022-09-11T10:23:50.810Z,25.30
2022-09-11T10:28:55.845Z,25.30
2022-09-11T10:34:00.363Z,25.20
2022-09-11T10:39:03.014Z,25.20
2022-09-11T10:44:15.982Z,25.30
2022-09-11T10:49:21.886Z,25.40
2022-09-11T10:54:53.312Z,25.20
2022-09-11T11:00:11.588Z,26.20
2022-09-11T11:05:19.706Z,26.50
2022-09-11T11:10:40.622Z,26.50
2022-09-11T11:15:43.298Z,26.60
2022-09-11T11:21:10.004Z,26.50
2022-09-11T11:26:32.815Z,26.40
2022-09-11T11:31:44.207Z,26.30
2022-09-11T11:37:01.717Z,26.60
2022-09-11T11:42:35.153Z,27.00
2022-09-11T11:47:42.391Z,27.10
2022-09-11T11:52:57.215Z,27.30
2022-09-11T11:58:51.129Z,27.20
2022-09-11T12:04:11.348Z,27.20
2022-09-11T12:09:16.264Z,27.10
2022-09-11T12:14:33.733Z,27.10
2022-09-11T12:19:35.885Z,27.00
2022-09-11T12:24:52.559Z,27.30
2022-09-11T12:30:07.007Z,27.70
2022-09-11T12:35:44.093Z,28.20
2022-09-11T12:41:08.045Z,28.90
2022-09-11T12:46:34.572Z,28.90
2022-09-11T12:51:45.569Z,29.00
2022-09-11T12:56:52.262Z,29.10
2022-09-11T13:01:54.488Z,29.50
2022-09-11T13:07:05.252Z,29.60
2022-09-11T13:12:25.674Z,30.40
2022-09-11T13:17:34.349Z,30.80
2022-09-11T13:22:38.087Z,31.20
2022-09-11T13:27:47.710Z,31.30
2022-09-11T13:33:07.794Z,31.70
2022-09-11T13:38:24.951Z,32.70
2022-09-11T13:43:32.214Z,33.00
2022-09-11T13:48:34.625Z,33.10
2022-09-11T13:53:36.919Z,34.20
2022-09-11T13:58:39.517Z,34.90
2022-09-11T14:03:47.126Z,35.50
2022-09-11T14:08:55.957Z,35.50
2022-09-11T14:14:07.044Z,35.30
2022-09-11T14:19:17.123Z,34.10
2022-09-11T14:24:33.165Z,33.50
2022-09-11T14:29:36.605Z,32.90
2022-09-11T14:34:38.654Z,33.40
2022-09-11T14:39:42.904Z,34.70
2022-09-11T14:44:45.080Z,35.30
2022-09-11T14:49:48.090Z,36.10
2022-09-11T14:54:50.771Z,38.00
2022-09-11T14:59:53.171Z,38.60
2022-09-11T15:04:57.649Z,39.60
2022-09-11T15:09:59.779Z,39.70
2022-09-11T15:15:03.734Z,39.50
2022-09-11T15:20:08.967Z,38.00
2022-09-11T15:25:11.550Z,37.10
2022-09-11T15:30:13.612Z,36.90
2022-09-11T15:35:20.337Z,36.10
2022-09-11T15:40:23.479Z,34.60
2022-09-11T15:45:26.065Z,34.30
2022-09-11T15:50:29.964Z,34.20
2022-09-11T15:55:32.093Z,33.90
2022-09-11T16:00:35.075Z,33.30
2022-09-11T16:05:42.048Z,33.00
2022-09-11T16:10:44.132Z,32.40
2022-09-11T16:15:49.170Z,31.70
2022-09-11T16:20:58.524Z,31.20
2022-09-11T16:26:20.668Z,30.30
2022-09-11T16:31:22.853Z,30.00
2022-09-11T16:36:25.272Z,29.90
2022-09-11T16:46:29.976Z,29.20
2022-09-11T16:51:33.306Z,29.00
2022-09-11T16:56:35.435Z,28.50
2022-09-11T17:01:38.592Z,28.30
2022-09-11T17:06:40.782Z,28.10
2022-09-11T17:11:44.619Z,27.60
2022-09-11T17:16:47.901Z,27.20
2022-09-11T17:21:50.785Z,27.10
2022-09-11T17:26:52.897Z,26.90
2022-09-11T17:32:16.666Z,26.50
2022-09-11T17:37:18.160Z,25.90
2022-09-11T17:42:20.811Z,25.50
2022-09-11T17:47:22.913Z,25.30
2022-09-11T17:52:25.119Z,25.10
2022-09-11T17:57:27.238Z,24.60
2022-09-11T18:02:29.344Z,24.50
2022-09-11T18:07:31.880Z,24.00
2022-09-11T18:12:35.294Z,23.70
2022-09-11T18:17:38.092Z,23.70
2022-09-11T18:22:40.441Z,23.40
2022-09-11T18:27:43.093Z,23.70
2022-09-11T18:32:45.611Z,22.90
2022-09-11T18:37:47.684Z,22.90
2022-09-11T18:42:50.381Z,22.70
2022-09-11T18:47:54.404Z,22.60
2022-09-11T18:52:56.508Z,22.40
2022-09-11T18:58:00.165Z,22.20
2022-09-11T19:03:02.317Z,22.20
2022-09-11T19:08:04.355Z,22.20
2022-09-11T19:13:06.868Z,22.00
2022-09-11T19:18:08.960Z,21.90
2022-09-11T19:23:11.059Z,21.80
2022-09-11T19:28:13.005Z,21.60
2022-09-11T19:33:14.936Z,21.40
2022-09-11T19:38:17.381Z,21.40
2022-09-11T19:43:24.785Z,21.30
2022-09-11T19:48:26.824Z,21.10
2022-09-11T19:53:30.094Z,21.00
2022-09-11T19:58:32.398Z,20.90
2022-09-11T20:03:35.141Z,20.80
2022-09-11T20:08:37.915Z,20.80
2022-09-11T20:13:39.951Z,20.70
2022-09-11T20:18:42.811Z,20.60
2022-09-11T20:23:45.119Z,20.40
2022-09-11T20:28:48.099Z,20.40
2022-09-11T20:33:50.033Z,20.40
2022-09-11T20:38:53.426Z,20.20
2022-09-11T20:43:55.950Z,20.10
2022-09-11T20:49:00.019Z,20.00
2022-09-11T20:54:02.659Z,19.90
2022-09-11T20:59:04.657Z,19.80
2022-09-11T21:04:06.683Z,19.90
2022-09-11T21:09:10.949Z,19.70
2022-09-11T21:14:14.177Z,19.50
2022-09-11T21:19:16.935Z,19.50
2022-09-11T21:24:18.923Z,19.50
2022-09-11T21:29:20.980Z,19.40
2022-09-11T21:34:22.902Z,19.30
2022-09-11T21:39:24.903Z,19.30
2022-09-11T21:44:26.823Z,19.10
2022-09-11T21:49:28.770Z,19.10
2022-09-11T21:54:32.021Z,19.00
2022-09-11T21:59:34.097Z,18.90
2022-09-11T22:04:36.073Z,18.90
2022-09-11T22:09:38.513Z,18.80
2022-09-11T22:14:40.623Z,18.80
2022-09-11T22:19:43.561Z,18.70
2022-09-11T22:24:45.574Z,18.70
2022-09-11T22:29:47.505Z,18.60
2022-09-11T22:34:49.440Z,18.60
2022-09-11T22:39:51.422Z,18.50
2022-09-11T22:44:53.352Z,18.30
2022-09-11T22:49:55.335Z,18.30
2022-09-11T22:54:57.486Z,18.20
2022-09-11T22:59:59.874Z,18.20
2022-09-11T23:05:21.285Z,18.10
2022-09-11T23:10:23.540Z,18.10
2022-09-11T23:15:25.535Z,18.10
2022-09-11T23:20:29.699Z,18.00
2022-09-11T23:25:33.357Z,18.00
2022-09-11T23:30:38.174Z,18.10
2022-09-11T23:35:40.615Z,17.90
2022-09-11T23:40:42.623Z,17.90
2022-09-11T23:45:44.572Z,17.90
2022-09-11T23:50:46.524Z,17.80
2022-09-11T23:55:49.423Z,17.90
